PWSweather.com
Personal Weather Stations
Station Observations
STEFBZH56
PontScorff, PontScorffFR

PontScorffPontScorffFR

Lat: 47.831518, Lon: -3.4222200000000385

Elevation: 141

Station Type: Oregon WMR200

http://www.meteo-pontscorff.fr

Latest ConditionsUpdated 6:20:00 AM GMT+01:01 Thursday, Jun 27, 2019
Currently Today's Max Today's Min Today's Average
Temperature 71.2°F21.8°C 71.2°F21.8°C 66.6°F19.2°C 68.8°F20.4°C
Dew Point 68.4°F20.2°C 68.9°F20.5°C 65.4°F18.6°C 67.5°F19.7°C
Winds 3.7 mph E6.0 kmh E 5.8 mph -9.3 kmh - - 3.0 mph 4.8 kmh
Wind Gusts 8.5 mph13.7 kmh 10.3 mph16.6 kmh - -
Humidity 91% 98% 91% 95%
Pressure 30.03 in1016.9 mb 30.07 in1018.3 mb 30.00 in1015.9 mb -
Hour Temp Dew Point Humidity Winds Wind Gusts Pressure Precip Precip Rate Daily Precip Total
06:20 AM 71.2°F21.8°C 68.4°F20.2°C 91% 3.7 mph E6.0 kmh E 8.5 mph13.7 kmh 30.03 in1016.9 mb 0.00 in0.0 mm 0.00 in0.0 mm 0.00 in0.0 mm
06:15 AM 70.8°F21.6°C 68.1°F20.1°C 91% 4.4 mph ENE7.1 kmh ENE 8.7 mph14.0 kmh 30.03 in1016.9 mb 0.00 in0.0 mm 0.00 in0.0 mm 0.00 in0.0 mm
06:10 AM 70.7°F21.5°C 68.3°F20.2°C 92% 4.1 mph ENE6.6 kmh ENE 8.1 mph13.0 kmh 30.03 in1016.9 mb 0.00 in0.0 mm 0.00 in0.0 mm 0.00 in0.0 mm
06:05 AM 70.6°F21.4°C 68.1°F20.1°C 92% 4.3 mph ENE6.9 kmh ENE 7.6 mph12.2 kmh 30.03 in1016.9 mb 0.00 in0.0 mm 0.00 in0.0 mm 0.00 in0.0 mm
06:00 AM 70.5°F21.4°C 68.1°F20.1°C 92% 3.6 mph ENE5.8 kmh ENE 7.4 mph11.9 kmh 30.03 in1016.9 mb 0.00 in0.0 mm 0.00 in0.0 mm 0.00 in0.0 mm
05:55 AM 70.4°F21.3°C 68.0°F20.0°C 92% 4.4 mph NE7.1 kmh NE 6.7 mph10.8 kmh 30.03 in1016.9 mb 0.00 in0.0 mm 0.00 in0.0 mm 0.00 in0.0 mm
05:50 AM 70.3°F21.3°C 67.9°F19.9°C 92% 5.0 mph E8.0 kmh E 8.7 mph14.0 kmh 30.03 in1016.9 mb 0.00 in0.0 mm 0.00 in0.0 mm 0.00 in0.0 mm
05:45 AM 70.2°F21.2°C 67.8°F19.9°C 92% 5.3 mph E8.5 kmh E 8.5 mph13.7 kmh 30.03 in1016.9 mb 0.00 in0.0 mm 0.00 in0.0 mm 0.00 in0.0 mm
05:40 AM 70.2°F21.2°C 67.7°F19.8°C 92% 5.0 mph ENE8.0 kmh ENE 7.8 mph12.6 kmh 30.03 in1016.9 mb 0.00 in0.0 mm 0.00 in0.0 mm 0.00 in0.0 mm
05:35 AM 70.2°F21.2°C 68.0°F20.0°C 93% 5.4 mph ENE8.7 kmh ENE 10.1 mph16.3 kmh 30.03 in1016.9 mb 0.00 in0.0 mm 0.00 in0.0 mm 0.00 in0.0 mm
05:30 AM 70.2°F21.2°C 68.3°F20.2°C 94% 5.3 mph ENE8.5 kmh ENE 9.8 mph15.8 kmh 30.03 in1016.9 mb 0.00 in0.0 mm 0.00 in0.0 mm 0.00 in0.0 mm
05:25 AM 70.1°F21.2°C 68.2°F20.1°C 94% 5.5 mph ENE8.9 kmh ENE 7.8 mph12.6 kmh 30.03 in1016.9 mb 0.00 in0.0 mm 0.00 in0.0 mm 0.00 in0.0 mm
05:20 AM 70.0°F21.1°C 68.2°F20.1°C 94% 4.1 mph ENE6.6 kmh ENE 7.4 mph11.9 kmh 30.03 in1016.9 mb 0.00 in0.0 mm 0.00 in0.0 mm 0.00 in0.0 mm
05:15 AM 70.1°F21.2°C 68.3°F20.2°C 94% 3.8 mph E6.1 kmh E 7.8 mph12.6 kmh 30.03 in1016.9 mb 0.00 in0.0 mm 0.00 in0.0 mm 0.00 in0.0 mm
05:10 AM 70.2°F21.2°C 68.3°F20.2°C 94% 5.3 mph ENE8.5 kmh ENE 10.3 mph16.6 kmh 30.01 in1016.3 mb 0.00 in0.0 mm 0.00 in0.0 mm 0.00 in0.0 mm
05:05 AM 70.2°F21.2°C 68.3°F20.2°C 94% 5.4 mph ENE8.7 kmh ENE 10.3 mph16.6 kmh 30.00 in1015.9 mb 0.00 in0.0 mm 0.00 in0.0 mm 0.00 in0.0 mm
05:00 AM 70.2°F21.2°C 68.3°F20.2°C 94% 5.1 mph ENE8.2 kmh ENE 8.7 mph14.0 kmh 30.00 in1015.9 mb 0.00 in0.0 mm 0.00 in0.0 mm 0.00 in0.0 mm
04:55 AM 70.2°F21.2°C 68.3°F20.2°C 94% 5.8 mph ENE9.3 kmh ENE 10.1 mph16.3 kmh 30.00 in1015.9 mb 0.00 in0.0 mm 0.00 in0.0 mm 0.00 in0.0 mm
04:50 AM 70.2°F21.2°C 68.3°F20.2°C 94% 5.2 mph ENE8.4 kmh ENE 10.3 mph16.6 kmh 30.00 in1015.9 mb 0.00 in0.0 mm 0.00 in0.0 mm 0.00 in0.0 mm
04:45 AM 70.2°F21.2°C 68.7°F20.4°C 95% 4.8 mph E7.7 kmh E 8.3 mph13.4 kmh 30.00 in1015.9 mb 0.00 in0.0 mm 0.00 in0.0 mm 0.00 in0.0 mm
04:40 AM 70.2°F21.2°C 68.7°F20.4°C 95% 4.6 mph NE7.4 kmh NE 7.8 mph12.6 kmh 30.00 in1015.9 mb 0.00 in0.0 mm 0.00 in0.0 mm 0.00 in0.0 mm
04:35 AM 70.1°F21.2°C 68.6°F20.3°C 95% 4.7 mph NE7.6 kmh NE 8.7 mph14.0 kmh 30.00 in1015.9 mb 0.00 in0.0 mm 0.00 in0.0 mm 0.00 in0.0 mm
04:30 AM 70.0°F21.1°C 68.5°F20.3°C 95% 4.4 mph E7.1 kmh E 7.6 mph12.2 kmh 30.00 in1015.9 mb 0.00 in0.0 mm 0.00 in0.0 mm 0.00 in0.0 mm
04:25 AM 70.1°F21.2°C 68.6°F20.3°C 95% 4.3 mph NE6.9 kmh NE 7.4 mph11.9 kmh 30.00 in1015.9 mb 0.00 in0.0 mm 0.00 in0.0 mm 0.00 in0.0 mm
04:20 AM 70.2°F21.2°C 68.7°F20.4°C 95% 4.6 mph NE7.4 kmh NE 7.4 mph11.9 kmh 30.00 in1015.9 mb 0.00 in0.0 mm 0.00 in0.0 mm 0.00 in0.0 mm
04:15 AM 70.2°F21.2°C 68.7°F20.4°C 95% 4.2 mph NE6.8 kmh NE 7.6 mph12.2 kmh 30.00 in1015.9 mb 0.00 in0.0 mm 0.00 in0.0 mm 0.00 in0.0 mm
04:10 AM 70.1°F21.2°C 68.6°F20.3°C 95% 4.8 mph NE7.7 kmh NE 8.3 mph13.4 kmh 30.00 in1015.9 mb 0.00 in0.0 mm 0.00 in0.0 mm 0.00 in0.0 mm
04:05 AM 70.0°F21.1°C 68.5°F20.3°C 95% 3.9 mph NNE6.3 kmh NNE 6.7 mph10.8 kmh 30.00 in1015.9 mb 0.00 in0.0 mm 0.00 in0.0 mm 0.00 in0.0 mm
04:00 AM 70.2°F21.2°C 68.7°F20.4°C 95% 4.6 mph NE7.4 kmh NE 7.6 mph12.2 kmh 30.00 in1015.9 mb 0.00 in0.0 mm 0.00 in0.0 mm 0.00 in0.0 mm
03:55 AM 70.2°F21.2°C 68.7°F20.4°C 95% 4.8 mph NE7.7 kmh NE 8.3 mph13.4 kmh 30.00 in1015.9 mb 0.00 in0.0 mm 0.00 in0.0 mm 0.00 in0.0 mm
03:50 AM 70.2°F21.2°C 68.9°F20.5°C 96% 4.1 mph NE6.6 kmh NE 6.7 mph10.8 kmh 30.00 in1015.9 mb 0.00 in0.0 mm 0.00 in0.0 mm 0.00 in0.0 mm
03:45 AM 70.1°F21.2°C 68.9°F20.5°C 96% 4.4 mph NE7.1 kmh NE 6.9 mph11.1 kmh 30.00 in1015.9 mb 0.00 in0.0 mm 0.00 in0.0 mm 0.00 in0.0 mm
03:40 AM 70.0°F21.1°C 68.8°F20.4°C 96% 4.9 mph NE7.9 kmh NE 8.5 mph13.7 kmh 30.00 in1015.9 mb 0.00 in0.0 mm 0.00 in0.0 mm 0.00 in0.0 mm
03:35 AM 69.9°F21.1°C 68.7°F20.4°C 96% 3.9 mph NE6.3 kmh NE 8.3 mph13.4 kmh 30.00 in1015.9 mb 0.00 in0.0 mm 0.00 in0.0 mm 0.00 in0.0 mm
03:30 AM 69.8°F21.0°C 68.9°F20.5°C 97% 4.4 mph NE7.1 kmh NE 7.4 mph11.9 kmh 30.00 in1015.9 mb 0.00 in0.0 mm 0.00 in0.0 mm 0.00 in0.0 mm
03:25 AM 69.7°F20.9°C 68.8°F20.4°C 97% 3.9 mph ENE6.3 kmh ENE 6.0 mph9.7 kmh 30.00 in1015.9 mb 0.00 in0.0 mm 0.00 in0.0 mm 0.00 in0.0 mm
03:20 AM 69.6°F20.9°C 68.7°F20.4°C 97% 3.1 mph NE5.0 kmh NE 5.8 mph9.3 kmh 30.00 in1015.9 mb 0.00 in0.0 mm 0.00 in0.0 mm 0.00 in0.0 mm
03:15 AM 69.6°F20.9°C 68.7°F20.4°C 97% 3.2 mph NE5.1 kmh NE 4.5 mph7.2 kmh 30.00 in1015.9 mb 0.00 in0.0 mm 0.00 in0.0 mm 0.00 in0.0 mm
03:10 AM 69.5°F20.8°C 68.6°F20.3°C 97% 3.0 mph ENE4.8 kmh ENE 6.3 mph10.1 kmh 30.00 in1015.9 mb 0.00 in0.0 mm 0.00 in0.0 mm 0.00 in0.0 mm
03:05 AM 69.4°F20.8°C 68.5°F20.3°C 97% 3.9 mph ENE6.3 kmh ENE 6.0 mph9.7 kmh 30.00 in1015.9 mb 0.00 in0.0 mm 0.00 in0.0 mm 0.00 in0.0 mm
03:00 AM 69.3°F20.7°C 68.4°F20.2°C 97% 3.9 mph NE6.3 kmh NE 5.6 mph9.0 kmh 30.00 in1015.9 mb 0.00 in0.0 mm 0.00 in0.0 mm 0.00 in0.0 mm
02:55 AM 69.1°F20.6°C 68.3°F20.2°C 98% 3.1 mph ENE5.0 kmh ENE 5.1 mph8.2 kmh 30.03 in1016.9 mb 0.00 in0.0 mm 0.00 in0.0 mm 0.00 in0.0 mm
02:50 AM 68.9°F20.5°C 68.1°F20.1°C 97% 2.9 mph NE4.7 kmh NE 6.3 mph10.1 kmh 30.03 in1016.9 mb 0.00 in0.0 mm 0.00 in0.0 mm 0.00 in0.0 mm
02:45 AM 68.8°F20.4°C 68.2°F20.1°C 98% 2.5 mph NE4.0 kmh NE 4.5 mph7.2 kmh 30.03 in1016.9 mb 0.00 in0.0 mm 0.00 in0.0 mm 0.00 in0.0 mm
02:40 AM 68.7°F20.4°C 68.1°F20.1°C 98% 2.8 mph NE4.5 kmh NE 5.4 mph8.7 kmh 30.03 in1016.9 mb 0.00 in0.0 mm 0.00 in0.0 mm 0.00 in0.0 mm
02:35 AM 68.6°F20.3°C 68.0°F20.0°C 98% 2.9 mph NE4.7 kmh NE 5.4 mph8.7 kmh 30.03 in1016.9 mb 0.00 in0.0 mm 0.00 in0.0 mm 0.00 in0.0 mm
02:30 AM 68.3°F20.2°C 67.4°F19.7°C 97% 2.9 mph NE4.7 kmh NE 5.8 mph9.3 kmh 30.03 in1016.9 mb 0.00 in0.0 mm 0.00 in0.0 mm 0.00 in0.0 mm
02:25 AM 68.0°F20.0°C 67.2°F19.6°C 97% 2.6 mph NE4.2 kmh NE 5.1 mph8.2 kmh 30.04 in1017.3 mb 0.00 in0.0 mm 0.00 in0.0 mm 0.00 in0.0 mm
02:20 AM 67.7°F19.8°C 67.1°F19.5°C 98% 1.9 mph NE3.1 kmh NE 4.3 mph6.9 kmh 30.04 in1017.3 mb 0.00 in0.0 mm 0.00 in0.0 mm 0.00 in0.0 mm
02:15 AM 67.4°F19.7°C 66.7°F19.3°C 97% 1.7 mph NNE2.7 kmh NNE 3.8 mph6.1 kmh 30.04 in1017.3 mb 0.00 in0.0 mm 0.00 in0.0 mm 0.00 in0.0 mm
02:10 AM 67.3°F19.6°C 66.4°F19.1°C 97% 0.2 mph N0.3 kmh N 1.6 mph2.6 kmh 30.06 in1017.9 mb 0.00 in0.0 mm 0.00 in0.0 mm 0.00 in0.0 mm
02:05 AM 67.3°F19.6°C 66.4°F19.1°C 97% 1.2 mph NNE1.9 kmh NNE 2.5 mph4.0 kmh 30.06 in1017.9 mb 0.00 in0.0 mm 0.00 in0.0 mm 0.00 in0.0 mm
02:00 AM 67.3°F19.6°C 66.4°F19.1°C 97% 1.0 mph NW1.6 kmh NW 2.5 mph4.0 kmh 30.06 in1017.9 mb 0.00 in0.0 mm 0.00 in0.0 mm 0.00 in0.0 mm
01:55 AM 67.3°F19.6°C 66.4°F19.1°C 97% 0.6 mph W1.0 kmh W 2.5 mph4.0 kmh 30.04 in1017.3 mb 0.00 in0.0 mm 0.00 in0.0 mm 0.00 in0.0 mm
01:50 AM 67.3°F19.6°C 66.4°F19.1°C 97% 0.8 mph WNW1.3 kmh WNW 2.5 mph4.0 kmh 30.04 in1017.3 mb 0.00 in0.0 mm 0.00 in0.0 mm 0.00 in0.0 mm
01:45 AM 67.1°F19.5°C 66.3°F19.1°C 97% 1.3 mph WNW2.1 kmh WNW 3.1 mph5.0 kmh 30.04 in1017.3 mb 0.00 in0.0 mm 0.00 in0.0 mm 0.00 in0.0 mm
01:40 AM 67.1°F19.5°C 66.2°F19.0°C 97% 1.7 mph W2.7 kmh W 2.7 mph4.3 kmh 30.04 in1017.3 mb 0.00 in0.0 mm 0.00 in0.0 mm 0.00 in0.0 mm
01:35 AM 67.1°F19.5°C 66.2°F19.0°C 97% 0.4 mph NW0.6 kmh NW 1.8 mph2.9 kmh 30.04 in1017.3 mb 0.00 in0.0 mm 0.00 in0.0 mm 0.00 in0.0 mm
01:30 AM 67.0°F19.4°C 66.1°F18.9°C 97% 1.4 mph N2.3 kmh N 3.1 mph5.0 kmh 30.04 in1017.3 mb 0.00 in0.0 mm 0.00 in0.0 mm 0.00 in0.0 mm
01:25 AM 66.9°F19.4°C 66.0°F18.9°C 97% 0.1 mph N0.2 kmh N 1.3 mph2.1 kmh 30.04 in1017.3 mb 0.00 in0.0 mm 0.00 in0.0 mm 0.00 in0.0 mm
01:20 AM 66.7°F19.3°C 65.9°F18.8°C 97% 0.3 mph N0.5 kmh N 1.8 mph2.9 kmh 30.04 in1017.3 mb 0.00 in0.0 mm 0.00 in0.0 mm 0.00 in0.0 mm
01:15 AM 66.7°F19.3°C 65.6°F18.7°C 96% 0.1 mph NNW0.2 kmh NNW 1.1 mph1.8 kmh 30.04 in1017.3 mb 0.00 in0.0 mm 0.00 in0.0 mm 0.00 in0.0 mm
01:10 AM 66.7°F19.3°C 65.5°F18.6°C 96% 0.7 mph NNW1.1 kmh NNW 1.8 mph2.9 kmh 30.04 in1017.3 mb 0.00 in0.0 mm 0.00 in0.0 mm 0.00 in0.0 mm
01:05 AM 66.7°F19.3°C 65.5°F18.6°C 96% 0.8 mph NNE1.3 kmh NNE 2.9 mph4.7 kmh 30.04 in1017.3 mb 0.00 in0.0 mm 0.00 in0.0 mm 0.00 in0.0 mm
01:00 AM 66.6°F19.2°C 65.4°F18.6°C 96% 0.6 mph N1.0 kmh N 2.5 mph4.0 kmh 30.04 in1017.3 mb 0.00 in0.0 mm 0.00 in0.0 mm 0.00 in0.0 mm
12:55 AM 66.6°F19.2°C 65.4°F18.6°C 96% 0.9 mph N1.4 kmh N 2.0 mph3.2 kmh 30.04 in1017.3 mb 0.00 in0.0 mm 0.00 in0.0 mm 0.00 in0.0 mm
12:50 AM 66.6°F19.2°C 65.4°F18.6°C 96% 0.8 mph N1.3 kmh N 2.7 mph4.3 kmh 30.04 in1017.3 mb 0.00 in0.0 mm 0.00 in0.0 mm 0.00 in0.0 mm
12:45 AM 66.6°F19.2°C 65.4°F18.6°C 96% 1.3 mph N2.1 kmh N 3.1 mph5.0 kmh 30.04 in1017.3 mb 0.00 in0.0 mm 0.00 in0.0 mm 0.00 in0.0 mm
12:40 AM 66.7°F19.3°C 65.5°F18.6°C 96% 0.6 mph NW1.0 kmh NW 2.5 mph4.0 kmh 30.06 in1017.9 mb 0.00 in0.0 mm 0.00 in0.0 mm 0.00 in0.0 mm
12:35 AM 66.7°F19.3°C 65.6°F18.7°C 96% 0.8 mph N1.3 kmh N 2.5 mph4.0 kmh 30.07 in1018.3 mb 0.00 in0.0 mm 0.00 in0.0 mm 0.00 in0.0 mm
12:30 AM 66.9°F19.4°C 65.7°F18.7°C 96% 1.6 mph NW2.6 kmh NW 3.6 mph5.8 kmh 30.07 in1018.3 mb 0.00 in0.0 mm 0.00 in0.0 mm 0.00 in0.0 mm
12:25 AM 67.1°F19.5°C 65.8°F18.8°C 96% 2.3 mph NW3.7 kmh NW 4.3 mph6.9 kmh 30.06 in1017.9 mb 0.00 in0.0 mm 0.00 in0.0 mm 0.00 in0.0 mm
12:20 AM 67.1°F19.5°C 65.6°F18.7°C 95% 1.4 mph N2.3 kmh N 3.4 mph5.5 kmh 30.06 in1017.9 mb 0.00 in0.0 mm 0.00 in0.0 mm 0.00 in0.0 mm
12:15 AM 67.2°F19.6°C 65.8°F18.8°C 95% 1.2 mph N1.9 kmh N 3.4 mph5.5 kmh 30.06 in1017.9 mb 0.00 in0.0 mm 0.00 in0.0 mm 0.00 in0.0 mm
12:10 AM 67.4°F19.7°C 65.9°F18.8°C 95% 1.4 mph NW2.3 kmh NW 3.4 mph5.5 kmh 30.04 in1017.3 mb 0.00 in0.0 mm 0.00 in0.0 mm 0.00 in0.0 mm
12:05 AM 67.5°F19.7°C 66.0°F18.9°C 95% 1.7 mph NW2.7 kmh NW 3.4 mph5.5 kmh 30.04 in1017.3 mb 0.00 in0.0 mm 0.00 in0.0 mm 0.00 in0.0 mm
12:00 AM 67.6°F19.8°C 66.2°F19.0°C 95% 1.9 mph NNW3.1 kmh NNW 3.8 mph6.1 kmh 30.04 in1017.3 mb 0.00 in0.0 mm 0.00 in0.0 mm 0.00 in0.0 mm